sensor_id;sensor_type;location;lat;lon;timestamp;pressure;altitude;pressure_sealevel;temperature;humidity
17230;BME280;8731;50.364;8.958;2024-03-07T00:00:18;100901.28;;;3.35;94.41
17230;BME280;8731;50.364;8.958;2024-03-07T00:04:41;100893.13;;;3.43;93.08
17230;BME280;8731;50.364;8.958;2024-03-07T00:09:04;100903.41;;;3.32;92.51
17230;BME280;8731;50.364;8.958;2024-03-07T00:13:26;100897.66;;;3.33;91.47
17230;BME280;8731;50.364;8.958;2024-03-07T00:17:50;100892.88;;;3.03;94.57
17230;BME280;8731;50.364;8.958;2024-03-07T00:22:13;100888.88;;;3.24;93.12
17230;BME280;8731;50.364;8.958;2024-03-07T00:26:35;100891.00;;;3.21;92.68
17230;BME280;8731;50.364;8.958;2024-03-07T00:31:00;100890.38;;;3.29;91.76
17230;BME280;8731;50.364;8.958;2024-03-07T00:35:24;100892.81;;;3.22;93.51
17230;BME280;8731;50.364;8.958;2024-03-07T00:39:47;100886.66;;;3.20;91.09
17230;BME280;8731;50.364;8.958;2024-03-07T00:44:10;100892.69;;;3.15;93.30
17230;BME280;8731;50.364;8.958;2024-03-07T00:48:32;100883.00;;;2.92;95.84
17230;BME280;8731;50.364;8.958;2024-03-07T00:52:56;100880.41;;;2.98;95.20
17230;BME280;8731;50.364;8.958;2024-03-07T00:57:19;100884.97;;;2.82;97.40
17230;BME280;8731;50.364;8.958;2024-03-07T01:01:42;100888.41;;;2.83;96.12
17230;BME280;8731;50.364;8.958;2024-03-07T01:06:05;100885.63;;;2.87;94.00
17230;BME280;8731;50.364;8.958;2024-03-07T01:10:31;100879.69;;;2.86;94.69
17230;BME280;8731;50.364;8.958;2024-03-07T01:14:54;100875.34;;;2.85;95.58
17230;BME280;8731;50.364;8.958;2024-03-07T01:19:17;100872.34;;;2.57;97.78
17230;BME280;8731;50.364;8.958;2024-03-07T01:23:40;100872.09;;;2.73;95.34
17230;BME280;8731;50.364;8.958;2024-03-07T01:28:04;100873.31;;;2.70;95.82
17230;BME280;8731;50.364;8.958;2024-03-07T01:32:27;100865.78;;;2.52;95.97
17230;BME280;8731;50.364;8.958;2024-03-07T01:36:49;100866.41;;;2.56;96.81
17230;BME280;8731;50.364;8.958;2024-03-07T01:41:11;100865.19;;;2.47;96.29
17230;BME280;8731;50.364;8.958;2024-03-07T01:45:36;100866.09;;;2.47;94.48
17230;BME280;8731;50.364;8.958;2024-03-07T01:49:59;100869.88;;;2.38;94.21
17230;BME280;8731;50.364;8.958;2024-03-07T01:54:21;100863.06;;;2.37;94.51
17230;BME280;8731;50.364;8.958;2024-03-07T01:58:45;100855.03;;;2.40;94.12
17230;BME280;8731;50.364;8.958;2024-03-07T02:03:10;100861.91;;;2.35;93.21
17230;BME280;8731;50.364;8.958;2024-03-07T02:07:33;100855.84;;;2.28;93.56
17230;BME280;8731;50.364;8.958;2024-03-07T02:11:57;100855.16;;;2.29;93.91
17230;BME280;8731;50.364;8.958;2024-03-07T02:16:20;100852.44;;;2.27;93.24
17230;BME280;8731;50.364;8.958;2024-03-07T02:20:44;100852.19;;;2.13;95.80
17230;BME280;8731;50.364;8.958;2024-03-07T02:25:07;100848.91;;;2.01;97.48
17230;BME280;8731;50.364;8.958;2024-03-07T02:29:31;100850.63;;;2.08;96.32
17230;BME280;8731;50.364;8.958;2024-03-07T02:33:54;100845.34;;;2.12;94.94
17230;BME280;8731;50.364;8.958;2024-03-07T02:38:18;100839.84;;;1.96;96.57
17230;BME280;8731;50.364;8.958;2024-03-07T02:42:40;100840.88;;;2.04;96.15
17230;BME280;8731;50.364;8.958;2024-03-07T02:47:03;100838.94;;;1.96;95.28
17230;BME280;8731;50.364;8.958;2024-03-07T02:51:26;100843.06;;;1.95;95.74
17230;BME280;8731;50.364;8.958;2024-03-07T02:55:50;100836.06;;;1.87;97.29
17230;BME280;8731;50.364;8.958;2024-03-07T03:00:13;100829.66;;;1.89;96.46
17230;BME280;8731;50.364;8.958;2024-03-07T03:04:46;100835.53;;;1.77;97.42
17230;BME280;8731;50.364;8.958;2024-03-07T03:09:09;100822.69;;;1.81;96.57
17230;BME280;8731;50.364;8.958;2024-03-07T03:13:37;100823.38;;;1.80;96.59
17230;BME280;8731;50.364;8.958;2024-03-07T03:18:00;100825.81;;;1.85;96.20
17230;BME280;8731;50.364;8.958;2024-03-07T03:22:23;100828.63;;;1.81;95.18
17230;BME280;8731;50.364;8.958;2024-03-07T03:26:47;100829.72;;;1.47;98.85
17230;BME280;8731;50.364;8.958;2024-03-07T03:31:10;100822.63;;;1.50;99.11
17230;BME280;8731;50.364;8.958;2024-03-07T03:35:34;100820.81;;;1.49;99.87
17230;BME280;8731;50.364;8.958;2024-03-07T03:39:57;100826.25;;;1.52;98.85
17230;BME280;8731;50.364;8.958;2024-03-07T03:44:20;100828.47;;;1.56;97.76
17230;BME280;8731;50.364;8.958;2024-03-07T03:48:43;100827.50;;;1.43;98.14
17230;BME280;8731;50.364;8.958;2024-03-07T03:53:06;100823.81;;;1.46;97.82
17230;BME280;8731;50.364;8.958;2024-03-07T03:57:29;100821.31;;;1.41;97.64
17230;BME280;8731;50.364;8.958;2024-03-07T04:01:51;100819.38;;;1.33;98.43
17230;BME280;8731;50.364;8.958;2024-03-07T04:06:15;100826.47;;;1.30;98.05
17230;BME280;8731;50.364;8.958;2024-03-07T04:10:38;100812.75;;;1.33;96.94
17230;BME280;8731;50.364;8.958;2024-03-07T04:15:02;100819.66;;;1.29;97.06
17230;BME280;8731;50.364;8.958;2024-03-07T04:19:27;100823.84;;;1.17;98.80
17230;BME280;8731;50.364;8.958;2024-03-07T04:23:55;100823.34;;;1.01;100.00
17230;BME280;8731;50.364;8.958;2024-03-07T04:28:17;100826.28;;;1.04;99.63
17230;BME280;8731;50.364;8.958;2024-03-07T04:32:39;100823.50;;;1.08;99.32
17230;BME280;8731;50.364;8.958;2024-03-07T04:37:02;100819.44;;;1.03;98.93
17230;BME280;8731;50.364;8.958;2024-03-07T04:41:26;100814.84;;;1.06;98.67
17230;BME280;8731;50.364;8.958;2024-03-07T04:45:49;100812.13;;;1.05;97.26
17230;BME280;8731;50.364;8.958;2024-03-07T04:50:12;100816.47;;;1.06;97.73
17230;BME280;8731;50.364;8.958;2024-03-07T04:54:37;100808.25;;;1.07;97.24
17230;BME280;8731;50.364;8.958;2024-03-07T04:59:01;100817.50;;;0.95;99.25
17230;BME280;8731;50.364;8.958;2024-03-07T05:03:23;100820.41;;;0.98;100.00
17230;BME280;8731;50.364;8.958;2024-03-07T05:07:46;100811.09;;;0.97;100.00
17230;BME280;8731;50.364;8.958;2024-03-07T05:12:09;100816.88;;;1.09;100.00
17230;BME280;8731;50.364;8.958;2024-03-07T05:16:33;100812.34;;;1.06;100.00
17230;BME280;8731;50.364;8.958;2024-03-07T05:20:56;100817.50;;;1.13;100.00
17230;BME280;8731;50.364;8.958;2024-03-07T05:25:38;100821.63;;;1.13;100.00
17230;BME280;8731;50.364;8.958;2024-03-07T05:30:02;100819.13;;;1.13;100.00
17230;BME280;8731;50.364;8.958;2024-03-07T05:34:27;100815.63;;;1.18;100.00
17230;BME280;8731;50.364;8.958;2024-03-07T05:38:50;100825.91;;;1.19;100.00
17230;BME280;8731;50.364;8.958;2024-03-07T05:43:13;100822.44;;;1.25;100.00
17230;BME280;8731;50.364;8.958;2024-03-07T05:47:35;100813.09;;;1.42;100.00
17230;BME280;8731;50.364;8.958;2024-03-07T05:51:59;100814.88;;;1.48;100.00
17230;BME280;8731;50.364;8.958;2024-03-07T05:56:21;100817.00;;;1.40;100.00
17230;BME280;8731;50.364;8.958;2024-03-07T06:00:43;100820.38;;;1.46;100.00
17230;BME280;8731;50.364;8.958;2024-03-07T06:05:09;100810.28;;;1.51;100.00
17230;BME280;8731;50.364;8.958;2024-03-07T06:09:37;100812.00;;;1.58;100.00
17230;BME280;8731;50.364;8.958;2024-03-07T06:13:59;100814.81;;;1.54;100.00
17230;BME280;8731;50.364;8.958;2024-03-07T06:18:23;100823.66;;;1.58;100.00
17230;BME280;8731;50.364;8.958;2024-03-07T06:22:45;100812.00;;;1.58;100.00
17230;BME280;8731;50.364;8.958;2024-03-07T06:27:09;100817.53;;;1.56;100.00
17230;BME280;8731;50.364;8.958;2024-03-07T06:31:36;100820.88;;;1.62;100.00
17230;BME280;8731;50.364;8.958;2024-03-07T06:36:00;100831.00;;;1.74;100.00
17230;BME280;8731;50.364;8.958;2024-03-07T06:40:22;100819.56;;;1.76;99.79
17230;BME280;8731;50.364;8.958;2024-03-07T06:44:46;100824.50;;;1.82;100.00
17230;BME280;8731;50.364;8.958;2024-03-07T06:49:10;100821.09;;;2.00;100.00
17230;BME280;8731;50.364;8.958;2024-03-07T06:53:33;100817.19;;;2.02;100.00
17230;BME280;8731;50.364;8.958;2024-03-07T06:57:55;100816.34;;;2.14;100.00
17230;BME280;8731;50.364;8.958;2024-03-07T07:02:19;100822.47;;;2.47;100.00
17230;BME280;8731;50.364;8.958;2024-03-07T07:06:41;100811.34;;;2.70;100.00
17230;BME280;8731;50.364;8.958;2024-03-07T07:11:04;100812.06;;;2.82;99.21
17230;BME280;8731;50.364;8.958;2024-03-07T07:15:26;100808.94;;;2.77;99.24
17230;BME280;8731;50.364;8.958;2024-03-07T07:19:50;100809.28;;;2.86;99.52
17230;BME280;8731;50.364;8.958;2024-03-07T07:24:16;100801.63;;;3.04;97.63
17230;BME280;8731;50.364;8.958;2024-03-07T07:28:39;100804.13;;;2.79;99.59
17230;BME280;8731;50.364;8.958;2024-03-07T07:33:01;100799.09;;;2.79;99.38
17230;BME280;8731;50.364;8.958;2024-03-07T07:37:25;100782.09;;;2.84;100.00
17230;BME280;8731;50.364;8.958;2024-03-07T07:41:47;100789.16;;;2.99;99.48
17230;BME280;8731;50.364;8.958;2024-03-07T07:46:10;100786.53;;;3.04;98.96
17230;BME280;8731;50.364;8.958;2024-03-07T07:50:32;100786.63;;;3.24;99.61
17230;BME280;8731;50.364;8.958;2024-03-07T07:54:57;100792.16;;;3.22;100.00
17230;BME280;8731;50.364;8.958;2024-03-07T07:59:20;100786.53;;;3.17;99.62
17230;BME280;8731;50.364;8.958;2024-03-07T08:03:42;100781.41;;;3.35;99.46
17230;BME280;8731;50.364;8.958;2024-03-07T08:08:07;100777.94;;;3.48;98.14
17230;BME280;8731;50.364;8.958;2024-03-07T08:12:33;100779.53;;;3.60;97.95
17230;BME280;8731;50.364;8.958;2024-03-07T08:16:57;100777.28;;;3.68;97.96
17230;BME280;8731;50.364;8.958;2024-03-07T08:21:19;100773.47;;;3.52;99.01
17230;BME280;8731;50.364;8.958;2024-03-07T08:25:43;100774.63;;;3.74;100.00
17230;BME280;8731;50.364;8.958;2024-03-07T08:30:09;100770.03;;;3.97;98.85
17230;BME280;8731;50.364;8.958;2024-03-07T08:34:33;100771.31;;;4.00;97.66
17230;BME280;8731;50.364;8.958;2024-03-07T08:38:55;100774.16;;;4.16;98.48
17230;BME280;8731;50.364;8.958;2024-03-07T08:43:17;100770.38;;;4.32;97.73
17230;BME280;8731;50.364;8.958;2024-03-07T08:47:41;100765.91;;;4.37;96.67
17230;BME280;8731;50.364;8.958;2024-03-07T08:52:04;100762.31;;;4.62;97.53
17230;BME280;8731;50.364;8.958;2024-03-07T08:56:27;100765.41;;;4.67;98.45
17230;BME280;8731;50.364;8.958;2024-03-07T09:00:50;100764.69;;;4.68;98.15
17230;BME280;8731;50.364;8.958;2024-03-07T09:05:14;100770.44;;;4.93;96.96
17230;BME280;8731;50.364;8.958;2024-03-07T09:09:37;100764.88;;;4.96;96.17
17230;BME280;8731;50.364;8.958;2024-03-07T09:13:59;100762.94;;;5.01;97.16
17230;BME280;8731;50.364;8.958;2024-03-07T09:18:22;100758.31;;;5.18;96.34
17230;BME280;8731;50.364;8.958;2024-03-07T09:22:47;100756.94;;;5.27;95.16
17230;BME280;8731;50.364;8.958;2024-03-07T09:27:10;100756.13;;;5.48;93.76
17230;BME280;8731;50.364;8.958;2024-03-07T09:31:33;100756.31;;;5.57;93.44
17230;BME280;8731;50.364;8.958;2024-03-07T09:35:57;100758.47;;;5.53;92.17
17230;BME280;8731;50.364;8.958;2024-03-07T09:40:20;100756.38;;;5.78;92.14
17230;BME280;8731;50.364;8.958;2024-03-07T09:44:45;100759.28;;;5.81;90.95
17230;BME280;8731;50.364;8.958;2024-03-07T09:49:12;100758.19;;;5.86;91.48
17230;BME280;8731;50.364;8.958;2024-03-07T09:53:36;100747.97;;;6.13;91.89
17230;BME280;8731;50.364;8.958;2024-03-07T09:58:04;100748.38;;;6.30;91.38
17230;BME280;8731;50.364;8.958;2024-03-07T10:02:29;100755.94;;;6.23;89.67
17230;BME280;8731;50.364;8.958;2024-03-07T10:06:58;100749.63;;;6.48;89.90
17230;BME280;8731;50.364;8.958;2024-03-07T10:11:21;100748.91;;;6.63;89.69
17230;BME280;8731;50.364;8.958;2024-03-07T10:15:44;100740.94;;;6.53;88.67
17230;BME280;8731;50.364;8.958;2024-03-07T10:20:08;100742.88;;;6.91;88.58
17230;BME280;8731;50.364;8.958;2024-03-07T10:24:34;100736.84;;;7.19;87.78
17230;BME280;8731;50.364;8.958;2024-03-07T10:28:56;100728.81;;;7.37;87.41
17230;BME280;8731;50.364;8.958;2024-03-07T10:33:20;100720.47;;;7.38;86.65
17230;BME280;8731;50.364;8.958;2024-03-07T10:37:44;100721.38;;;7.39;85.38
17230;BME280;8731;50.364;8.958;2024-03-07T10:42:13;100713.91;;;7.78;85.46
17230;BME280;8731;50.364;8.958;2024-03-07T10:46:36;100707.53;;;7.88;84.54
17230;BME280;8731;50.364;8.958;2024-03-07T10:51:06;100711.03;;;8.05;84.04
17230;BME280;8731;50.364;8.958;2024-03-07T10:55:40;100696.25;;;8.16;83.35
17230;BME280;8731;50.364;8.958;2024-03-07T11:00:09;100685.06;;;8.37;82.63
17230;BME280;8731;50.364;8.958;2024-03-07T11:04:50;100679.81;;;8.36;80.96
17230;BME280;8731;50.364;8.958;2024-03-07T11:09:15;100676.34;;;8.58;80.75
17230;BME280;8731;50.364;8.958;2024-03-07T11:13:43;100669.88;;;8.84;80.71
17230;BME280;8731;50.364;8.958;2024-03-07T11:18:09;100670.59;;;8.68;78.63
17230;BME280;8731;50.364;8.958;2024-03-07T11:22:33;100657.94;;;8.99;78.71
17230;BME280;8731;50.364;8.958;2024-03-07T11:26:57;100652.56;;;9.20;78.68
17230;BME280;8731;50.364;8.958;2024-03-07T11:31:26;100650.97;;;9.05;76.72
17230;BME280;8731;50.364;8.958;2024-03-07T11:35:52;100642.06;;;9.17;76.42
17230;BME280;8731;50.364;8.958;2024-03-07T11:40:44;100634.63;;;9.19;75.79
17230;BME280;8731;50.364;8.958;2024-03-07T11:45:10;100630.69;;;9.54;76.37
17230;BME280;8731;50.364;8.958;2024-03-07T11:49:45;100619.34;;;9.59;76.00
17230;BME280;8731;50.364;8.958;2024-03-07T11:54:09;100613.75;;;9.70;75.81
17230;BME280;8731;50.364;8.958;2024-03-07T11:58:38;100610.03;;;9.84;74.58
17230;BME280;8731;50.364;8.958;2024-03-07T12:03:03;100601.94;;;10.12;75.51
17230;BME280;8731;50.364;8.958;2024-03-07T12:07:27;100591.88;;;9.97;74.24
17230;BME280;8731;50.364;8.958;2024-03-07T12:11:51;100586.25;;;9.83;73.15
17230;BME280;8731;50.364;8.958;2024-03-07T12:16:14;100584.69;;;9.68;73.73
17230;BME280;8731;50.364;8.958;2024-03-07T12:20:38;100581.03;;;9.82;73.49
17230;BME280;8731;50.364;8.958;2024-03-07T12:25:02;100570.81;;;9.73;73.12
17230;BME280;8731;50.364;8.958;2024-03-07T12:29:28;100568.75;;;10.20;73.91
17230;BME280;8731;50.364;8.958;2024-03-07T12:33:51;100555.63;;;11.01;71.80
17230;BME280;8731;50.364;8.958;2024-03-07T12:38:15;100548.72;;;10.31;66.84
17230;BME280;8731;50.364;8.958;2024-03-07T12:42:38;100540.34;;;10.24;67.93
17230;BME280;8731;50.364;8.958;2024-03-07T12:47:04;100544.31;;;10.13;68.19
17230;BME280;8731;50.364;8.958;2024-03-07T12:51:30;100545.81;;;10.11;66.74
17230;BME280;8731;50.364;8.958;2024-03-07T12:55:54;100544.53;;;9.90;66.71
17230;BME280;8731;50.364;8.958;2024-03-07T13:00:17;100522.91;;;10.02;65.55
17230;BME280;8731;50.364;8.958;2024-03-07T13:04:41;100528.22;;;9.88;65.77
17230;BME280;8731;50.364;8.958;2024-03-07T13:09:05;100527.63;;;9.91;65.77
17230;BME280;8731;50.364;8.958;2024-03-07T13:13:32;100525.44;;;10.11;65.44
17230;BME280;8731;50.364;8.958;2024-03-07T13:17:54;100522.75;;;10.01;65.92
17230;BME280;8731;50.364;8.958;2024-03-07T13:22:16;100526.78;;;9.99;64.22
17230;BME280;8731;50.364;8.958;2024-03-07T13:26:39;100526.56;;;9.80;64.95
17230;BME280;8731;50.364;8.958;2024-03-07T13:31:04;100521.41;;;9.96;66.08
17230;BME280;8731;50.364;8.958;2024-03-07T13:35:26;100513.50;;;9.68;64.22
17230;BME280;8731;50.364;8.958;2024-03-07T13:39:48;100514.88;;;9.73;64.90
17230;BME280;8731;50.364;8.958;2024-03-07T13:44:11;100511.25;;;9.63;65.14
17230;BME280;8731;50.364;8.958;2024-03-07T13:48:35;100511.53;;;9.57;65.31
17230;BME280;8731;50.364;8.958;2024-03-07T13:52:58;100513.31;;;9.58;66.00
17230;BME280;8731;50.364;8.958;2024-03-07T13:57:36;100506.59;;;9.59;64.79
17230;BME280;8731;50.364;8.958;2024-03-07T14:02:17;100515.34;;;9.45;65.59
17230;BME280;8731;50.364;8.958;2024-03-07T14:07:08;100509.50;;;9.70;64.51
17230;BME280;8731;50.364;8.958;2024-03-07T14:22:24;100489.84;;;9.52;61.94
17230;BME280;8731;50.364;8.958;2024-03-07T14:27:15;100485.53;;;9.60;62.90
17230;BME280;8731;50.364;8.958;2024-03-07T14:31:43;100478.78;;;9.51;63.16
17230;BME280;8731;50.364;8.958;2024-03-07T14:36:11;100479.16;;;9.72;62.89
17230;BME280;8731;50.364;8.958;2024-03-07T14:40:37;100474.22;;;9.82;62.03
17230;BME280;8731;50.364;8.958;2024-03-07T14:45:00;100477.75;;;9.58;61.70
17230;BME280;8731;50.364;8.958;2024-03-07T14:49:28;100476.09;;;9.59;61.51
17230;BME280;8731;50.364;8.958;2024-03-07T14:53:50;100465.69;;;9.81;63.32
17230;BME280;8731;50.364;8.958;2024-03-07T14:58:14;100470.72;;;9.64;62.34
17230;BME280;8731;50.364;8.958;2024-03-07T15:02:36;100470.09;;;9.49;60.97
17230;BME280;8731;50.364;8.958;2024-03-07T15:06:59;100468.69;;;9.86;62.46
17230;BME280;8731;50.364;8.958;2024-03-07T15:11:26;100467.88;;;9.70;61.34
17230;BME280;8731;50.364;8.958;2024-03-07T15:15:54;100455.81;;;9.84;61.99
17230;BME280;8731;50.364;8.958;2024-03-07T15:20:18;100462.63;;;9.60;60.92
17230;BME280;8731;50.364;8.958;2024-03-07T15:24:43;100451.59;;;9.68;60.55
17230;BME280;8731;50.364;8.958;2024-03-07T15:29:05;100452.00;;;9.55;60.85
17230;BME280;8731;50.364;8.958;2024-03-07T15:33:29;100451.72;;;9.52;60.47
17230;BME280;8731;50.364;8.958;2024-03-07T15:37:52;100448.88;;;9.49;60.42
17230;BME280;8731;50.364;8.958;2024-03-07T15:42:15;100447.91;;;9.40;61.16
17230;BME280;8731;50.364;8.958;2024-03-07T15:46:37;100442.53;;;9.37;60.37
17230;BME280;8731;50.364;8.958;2024-03-07T15:51:01;100448.66;;;9.39;61.34
17230;BME280;8731;50.364;8.958;2024-03-07T15:55:24;100444.31;;;9.38;60.22
17230;BME280;8731;50.364;8.958;2024-03-07T15:59:48;100444.03;;;9.43;59.85
17230;BME280;8731;50.364;8.958;2024-03-07T16:04:13;100438.63;;;9.32;60.21
17230;BME280;8731;50.364;8.958;2024-03-07T16:08:38;100443.78;;;9.49;60.72
17230;BME280;8731;50.364;8.958;2024-03-07T16:13:03;100444.47;;;9.31;59.36
17230;BME280;8731;50.364;8.958;2024-03-07T16:17:27;100441.31;;;9.25;60.37
17230;BME280;8731;50.364;8.958;2024-03-07T16:21:50;100445.38;;;9.40;60.92
17230;BME280;8731;50.364;8.958;2024-03-07T16:26:14;100437.13;;;9.34;60.24
17230;BME280;8731;50.364;8.958;2024-03-07T16:30:38;100442.13;;;9.16;59.37
17230;BME280;8731;50.364;8.958;2024-03-07T16:35:05;100441.25;;;9.16;59.85
17230;BME280;8731;50.364;8.958;2024-03-07T16:39:30;100449.47;;;8.89;58.79
17230;BME280;8731;50.364;8.958;2024-03-07T16:43:55;100438.88;;;8.93;60.03
17230;BME280;8731;50.364;8.958;2024-03-07T16:48:18;100446.94;;;8.89;60.81
17230;BME280;8731;50.364;8.958;2024-03-07T16:52:41;100453.28;;;8.77;60.03
17230;BME280;8731;50.364;8.958;2024-03-07T16:57:06;100447.47;;;8.78;61.11
17230;BME280;8731;50.364;8.958;2024-03-07T17:01:31;100444.88;;;8.69;60.56
17230;BME280;8731;50.364;8.958;2024-03-07T17:05:54;100447.72;;;8.72;60.87
17230;BME280;8731;50.364;8.958;2024-03-07T17:10:17;100437.22;;;8.45;60.34
17230;BME280;8731;50.364;8.958;2024-03-07T17:14:39;100443.31;;;8.38;60.22
17230;BME280;8731;50.364;8.958;2024-03-07T17:19:05;100444.13;;;8.30;60.56
17230;BME280;8731;50.364;8.958;2024-03-07T17:23:30;100450.84;;;8.14;61.07
17230;BME280;8731;50.364;8.958;2024-03-07T17:27:52;100452.06;;;8.17;61.00
17230;BME280;8731;50.364;8.958;2024-03-07T17:32:17;100440.59;;;8.21;61.22
17230;BME280;8731;50.364;8.958;2024-03-07T17:36:41;100451.56;;;8.13;61.64
17230;BME280;8731;50.364;8.958;2024-03-07T17:41:04;100449.44;;;8.09;61.61
17230;BME280;8731;50.364;8.958;2024-03-07T17:45:27;100455.63;;;8.04;61.18
17230;BME280;8731;50.364;8.958;2024-03-07T17:49:54;100463.56;;;7.75;61.33
17230;BME280;8731;50.364;8.958;2024-03-07T17:54:18;100464.06;;;7.80;61.59
17230;BME280;8731;50.364;8.958;2024-03-07T17:58:40;100463.50;;;7.82;61.79
17230;BME280;8731;50.364;8.958;2024-03-07T18:03:05;100461.44;;;7.71;61.95
17230;BME280;8731;50.364;8.958;2024-03-07T18:07:28;100464.09;;;7.57;62.18
17230;BME280;8731;50.364;8.958;2024-03-07T18:11:52;100470.31;;;7.52;62.13
17230;BME280;8731;50.364;8.958;2024-03-07T18:16:16;100477.50;;;7.56;61.98
17230;BME280;8731;50.364;8.958;2024-03-07T18:20:39;100474.03;;;7.62;62.48
17230;BME280;8731;50.364;8.958;2024-03-07T18:25:02;100464.50;;;7.37;62.23
17230;BME280;8731;50.364;8.958;2024-03-07T18:29:26;100467.84;;;7.45;62.35
17230;BME280;8731;50.364;8.958;2024-03-07T18:33:48;100467.78;;;7.52;62.28
17230;BME280;8731;50.364;8.958;2024-03-07T18:38:11;100468.19;;;7.25;62.37
17230;BME280;8731;50.364;8.958;2024-03-07T18:42:34;100469.22;;;7.11;62.91
17230;BME280;8731;50.364;8.958;2024-03-07T18:46:58;100461.91;;;7.21;63.07
17230;BME280;8731;50.364;8.958;2024-03-07T18:51:23;100461.72;;;7.20;62.21
17230;BME280;8731;50.364;8.958;2024-03-07T18:55:46;100457.97;;;6.93;63.14
17230;BME280;8731;50.364;8.958;2024-03-07T19:00:11;100459.28;;;7.13;62.83
17230;BME280;8731;50.364;8.958;2024-03-07T19:04:49;100457.84;;;7.07;63.16
17230;BME280;8731;50.364;8.958;2024-03-07T19:09:13;100458.84;;;6.94;63.54
17230;BME280;8731;50.364;8.958;2024-03-07T19:13:42;100454.81;;;7.03;63.68
17230;BME280;8731;50.364;8.958;2024-03-07T19:18:07;100464.81;;;6.94;64.41
17230;BME280;8731;50.364;8.958;2024-03-07T19:22:34;100458.53;;;6.84;63.66
17230;BME280;8731;50.364;8.958;2024-03-07T19:26:56;100456.72;;;6.90;63.93
17230;BME280;8731;50.364;8.958;2024-03-07T19:31:19;100453.78;;;6.94;63.93
17230;BME280;8731;50.364;8.958;2024-03-07T19:35:42;100445.13;;;6.92;64.18
17230;BME280;8731;50.364;8.958;2024-03-07T19:40:08;100454.56;;;6.86;64.21
17230;BME280;8731;50.364;8.958;2024-03-07T19:44:32;100456.91;;;6.84;64.38
17230;BME280;8731;50.364;8.958;2024-03-07T19:48:57;100449.59;;;6.71;64.58
17230;BME280;8731;50.364;8.958;2024-03-07T19:53:20;100446.00;;;6.69;64.69
17230;BME280;8731;50.364;8.958;2024-03-07T19:57:44;100447.47;;;6.67;64.07
17230;BME280;8731;50.364;8.958;2024-03-07T20:02:08;100444.59;;;6.64;64.56
17230;BME280;8731;50.364;8.958;2024-03-07T20:06:32;100434.56;;;6.50;64.55
17230;BME280;8731;50.364;8.958;2024-03-07T20:10:55;100436.84;;;6.63;64.48
17230;BME280;8731;50.364;8.958;2024-03-07T20:15:19;100428.53;;;6.57;64.09
17230;BME280;8731;50.364;8.958;2024-03-07T20:19:42;100428.53;;;6.57;64.49
17230;BME280;8731;50.364;8.958;2024-03-07T20:24:05;100430.06;;;6.47;64.00
17230;BME280;8731;50.364;8.958;2024-03-07T20:28:29;100423.59;;;6.42;64.18
17230;BME280;8731;50.364;8.958;2024-03-07T20:32:53;100424.22;;;6.26;64.15
17230;BME280;8731;50.364;8.958;2024-03-07T20:37:15;100419.53;;;6.14;64.28
17230;BME280;8731;50.364;8.958;2024-03-07T20:41:37;100418.13;;;6.09;64.19
17230;BME280;8731;50.364;8.958;2024-03-07T20:46:00;100422.28;;;6.09;65.02
17230;BME280;8731;50.364;8.958;2024-03-07T20:50:25;100413.50;;;5.91;65.32
17230;BME280;8731;50.364;8.958;2024-03-07T20:54:49;100417.28;;;6.02;64.41
17230;BME280;8731;50.364;8.958;2024-03-07T20:59:11;100415.34;;;5.78;65.07
17230;BME280;8731;50.364;8.958;2024-03-07T21:03:37;100418.78;;;5.71;65.13
17230;BME280;8731;50.364;8.958;2024-03-07T21:08:03;100423.66;;;5.63;65.31
17230;BME280;8731;50.364;8.958;2024-03-07T21:12:25;100405.81;;;5.68;66.47
17230;BME280;8731;50.364;8.958;2024-03-07T21:16:48;100408.75;;;5.50;66.73
17230;BME280;8731;50.364;8.958;2024-03-07T21:21:11;100411.75;;;5.62;66.29
17230;BME280;8731;50.364;8.958;2024-03-07T21:25:34;100412.88;;;5.49;67.13
17230;BME280;8731;50.364;8.958;2024-03-07T21:29:57;100416.09;;;5.63;67.17
17230;BME280;8731;50.364;8.958;2024-03-07T21:34:19;100408.88;;;5.73;65.83
17230;BME280;8731;50.364;8.958;2024-03-07T21:38:42;100411.78;;;5.54;66.60
17230;BME280;8731;50.364;8.958;2024-03-07T21:43:05;100403.88;;;5.51;67.40
17230;BME280;8731;50.364;8.958;2024-03-07T21:47:27;100400.03;;;5.62;67.02
17230;BME280;8731;50.364;8.958;2024-03-07T21:51:50;100396.97;;;5.65;67.13
17230;BME280;8731;50.364;8.958;2024-03-07T21:56:12;100393.88;;;5.67;66.82
17230;BME280;8731;50.364;8.958;2024-03-07T22:00:36;100400.78;;;5.54;67.06
17230;BME280;8731;50.364;8.958;2024-03-07T22:04:58;100394.31;;;5.42;67.66
17230;BME280;8731;50.364;8.958;2024-03-07T22:09:21;100399.34;;;5.56;67.57
17230;BME280;8731;50.364;8.958;2024-03-07T22:13:44;100397.22;;;5.45;68.68
17230;BME280;8731;50.364;8.958;2024-03-07T22:18:08;100390.94;;;5.27;68.27
17230;BME280;8731;50.364;8.958;2024-03-07T22:22:30;100388.94;;;5.17;69.27
17230;BME280;8731;50.364;8.958;2024-03-07T22:26:53;100388.38;;;5.20;68.98
17230;BME280;8731;50.364;8.958;2024-03-07T22:31:16;100389.84;;;5.11;69.70
17230;BME280;8731;50.364;8.958;2024-03-07T22:35:40;100384.47;;;4.86;70.45
17230;BME280;8731;50.364;8.958;2024-03-07T22:40:02;100381.56;;;4.83;70.21
17230;BME280;8731;50.364;8.958;2024-03-07T22:44:25;100385.72;;;4.90;70.15
17230;BME280;8731;50.364;8.958;2024-03-07T22:48:48;100383.94;;;4.75;70.82
17230;BME280;8731;50.364;8.958;2024-03-07T22:53:12;100374.53;;;4.52;71.91
17230;BME280;8731;50.364;8.958;2024-03-07T22:57:34;100367.84;;;4.46;72.42
17230;BME280;8731;50.364;8.958;2024-03-07T23:01:57;100356.84;;;4.38;72.50
17230;BME280;8731;50.364;8.958;2024-03-07T23:06:20;100360.59;;;4.20;73.37
17230;BME280;8731;50.364;8.958;2024-03-07T23:10:44;100348.72;;;4.12;73.00
17230;BME280;8731;50.364;8.958;2024-03-07T23:15:08;100344.56;;;4.06;73.92
17230;BME280;8731;50.364;8.958;2024-03-07T23:19:31;100340.06;;;4.03;73.83
17230;BME280;8731;50.364;8.958;2024-03-07T23:23:53;100336.66;;;4.10;74.11
17230;BME280;8731;50.364;8.958;2024-03-07T23:28:17;100336.44;;;4.01;73.73
17230;BME280;8731;50.364;8.958;2024-03-07T23:32:39;100332.09;;;3.93;74.82
17230;BME280;8731;50.364;8.958;2024-03-07T23:37:01;100324.00;;;3.95;73.87
17230;BME280;8731;50.364;8.958;2024-03-07T23:41:24;100329.59;;;3.93;73.88
17230;BME280;8731;50.364;8.958;2024-03-07T23:45:47;100324.19;;;3.90;74.42